Stony Brook, Massachusetts
Current Conditions -  °F | °C
As of 7:56 AM on Friday 19 Dec 2014 (Local Time) from KBED Reporting Station
Overcast Overcast  
Wind Chill: 25°   Ceiling: 3200
Heat Index: 33°   Visibility: 10mi
Dew Point: 23°   Wind: 10mph
Humidity: 66%   Direction: 310°NW
Pressure: 29.92"   Gusts: NA
Location:  42.359°N, 71.3°W
Report Text: KBED 191256Z 31009KT 10SM OVC032 01/M05 A2992 RMK AO2 SLP146 T00061050
Loading
Personal Weather Stations






























Interactive Weather Map New forecast layout! Learn more

10-Day Weather Forecast

Advertisements
Track Severe Weather on mobile